Pensacola Naval Air Station/Forrest Sherman field
KNPA : now visible

Airfield :











YOU CAN JOIN US ON...

 
LOGIN :

Register | Disclaimer

   EN    FR    IT 

 









Legend :    VFR   Marginal VFR   IFR   Intensive IFR   Very Intensive IFR
Visi :
Ceiling :
>= 8 km
>= 3000ft
5 to 8 km
1000 to 3000 ft
1500m to 5 km
500 to 1000 ft
800 to 1500m
200 to 500 ft
< 800m
< 200 ft
Symbols :   Thunderstorms  Fog  Heavy snow  Heavy precipitations  Wind > 20 kt






- Airport Elevation : 28 ft


KNPA - Pensacola Naval Air Station/Forrest Sherman field

EXPIRED METARs :
  • 290656Z AUTO 02013G22KT 10SM CLR 14/04 A3024 RMK AO2 SLP243 T01390039
  • 290556Z AUTO 02014G21KT 10SM CLR 14/04 A3024 RMK AO2 SLP241 60000 T01440039 10217 20144 402780144 53015

TAF TAF KNPA
Valid from the 29 at 07:00 until the 01 at 07:00 UTC


2907/0107 01013G18KT 9999 FEW035 SCT120 SCT250 QNH3020INS
FM291200 04013G18KT 9999 SCT035 BKN150 BKN250 QNH3028INS
FM291800 06008KT 9999 SCT040 BKN150 BKN250 QNH3026INS
BECMG 2919/2921 VRB06KT 9999 BKN025 BKN050 QNH3023INS
BECMG 0103/0105 09010KT 9999 BKN025 BKN040 QNH3021INS AUT0MATED SENSOR METWATCH 2907 TIL 2912 TX17/2921Z TN11/2907Z FN00263
KZJX FIR / North America



MET'MAP, your aeronautical weather chart ! - Copyright ORBIFLY December 2007 - Disclaimer

ORBIFLY MET'MAP TEAM :

Programming & Development : Alexandra Zaïnal
Original concept : Baudouin d'Aumeries
Technical & hardware support : Manuel Goepfert
Assistance : Marc-Olivier Méhu




SOURCES & CREDITS :

   NOAA       Earth
Advisory